Time;durP1;ratioP1;P1;durP2;ratioP2;P2;SDS_P1;SDS_P2;PMS_P1;PMS_P2;Temp;Humidity;BMP_temperature;BMP_pressure;BME280_temperature;BME280_humidity;BME280_pressure;Samples;Min_cycle;Max_cycle;Signal;HPM_P1;HPM_P2
2021/07/27 04:44:22;;;;;;;10.73;7.45;;;;;;;18.27;76.75;99793.44;5006492;28;106590;-68
2021/07/27 04:46:47;;;;;;;10.43;5.88;;;;;;;18.36;77.06;99793.09;5009041;28;106485;-69
2021/07/27 04:49:16;;;;;;;11.00;6.38;;;;;;;18.47;77.54;99792.28;5005119;28;106204;-69
2021/07/27 04:51:42;;;;;;;13.55;6.45;;;;;;;18.59;77.21;99786.94;5003909;28;107237;-68
2021/07/27 04:54:13;;;;;;;8.20;5.22;;;;;;;18.73;77.49;99782.94;5003358;28;106036;-69
2021/07/27 04:56:38;;;;;;;12.32;5.03;;;;;;;18.89;77.29;99783.31;5003371;28;106168;-69
2021/07/27 04:59:04;;;;;;;12.02;5.90;;;;;;;19.04;77.21;99788.22;5003375;28;106670;-69
2021/07/27 05:01:29;;;;;;;9.40;5.72;;;;;;;19.19;76.92;99790.44;5002797;28;110121;-69
2021/07/27 05:03:58;;;;;;;9.93;5.50;;;;;;;19.33;76.85;99791.00;5002325;28;106786;-69
2021/07/27 05:06:24;;;;;;;11.98;5.63;;;;;;;19.47;76.73;99797.81;5003793;28;106036;-69
2021/07/27 05:08:49;;;;;;;13.77;5.22;;;;;;;19.64;76.42;99786.25;5003993;28;106570;-69
2021/07/27 05:11:15;;;;;;;11.02;5.53;;;;;;;19.82;76.01;99801.47;5005118;28;105878;-69
2021/07/27 05:13:41;;;;;;;9.98;5.35;;;;;;;20.02;75.90;99809.16;5004797;28;106140;-68
2021/07/27 05:16:06;;;;;;;11.63;6.40;;;;;;;20.18;75.80;99808.38;5005694;28;106034;-70
2021/07/27 05:18:31;;;;;;;10.88;5.70;;;;;;;20.31;75.37;99811.84;5004036;28;106572;-69
2021/07/27 05:20:57;;;;;;;8.40;5.20;;;;;;;20.39;74.88;99817.66;5004479;28;105975;-69
2021/07/27 05:23:24;;;;;;;12.38;5.70;;;;;;;20.50;74.81;99820.53;5004331;28;106036;-70
2021/07/27 05:25:49;;;;;;;10.65;6.07;;;;;;;20.58;74.35;99820.94;5005465;28;105998;-70
2021/07/27 05:28:15;;;;;;;10.38;5.32;;;;;;;20.68;74.20;99827.59;5004990;28;106149;-70
2021/07/27 05:30:40;;;;;;;11.32;5.35;;;;;;;20.87;73.91;99841.75;5004511;28;106675;-69
2021/07/27 05:33:05;;;;;;;11.00;5.05;;;;;;;21.10;73.67;99840.72;5004571;28;106102;-70
2021/07/27 05:35:31;;;;;;;9.68;5.10;;;;;;;21.29;73.08;99833.16;5005012;28;105877;-69
2021/07/27 05:37:56;;;;;;;11.35;4.82;;;;;;;21.52;72.66;99826.69;5004863;28;106310;-68
2021/07/27 05:40:22;;;;;;;9.70;4.68;;;;;;;21.72;72.06;99828.00;5004060;28;106053;-69
2021/07/27 05:42:47;;;;;;;10.48;4.45;;;;;;;21.89;71.50;99826.06;5003803;28;109298;-69
2021/07/27 05:45:12;;;;;;;8.82;4.43;;;;;;;22.09;71.13;99830.88;5004940;28;106341;-70
2021/07/27 05:47:38;;;;;;;7.70;3.83;;;;;;;22.28;70.62;99835.94;5004676;28;106252;-68
2021/07/27 05:50:08;;;;;;;8.95;4.00;;;;;;;22.46;69.97;99840.22;5003749;28;105803;-68
2021/07/27 05:52:33;;;;;;;7.68;3.85;;;;;;;22.65;69.33;99843.38;5003309;28;106249;-67
2021/07/27 05:54:59;;;;;;;7.25;3.75;;;;;;;22.84;68.90;99840.25;4995334;28;106031;-71
2021/07/27 05:57:24;;;;;;;8.20;4.30;;;;;;;23.00;68.61;99842.00;4990321;28;110220;-66
2021/07/27 05:59:49;;;;;;;8.55;3.85;;;;;;;23.14;67.52;99843.22;4990474;28;116086;-67
2021/07/27 06:02:21;;;;;;;7.43;3.40;;;;;;;23.25;66.84;99852.25;4990141;28;105971;-67
2021/07/27 06:04:46;;;;;;;7.50;3.60;;;;;;;23.30;65.74;99849.53;4991591;28;106048;-67
2021/07/27 06:07:11;;;;;;;7.07;3.95;;;;;;;23.37;65.44;99851.22;4991107;28;106174;-66
2021/07/27 06:09:37;;;;;;;6.55;3.85;;;;;;;23.41;64.82;99846.88;4990732;28;106515;-67
2021/07/27 06:12:03;;;;;;;11.35;3.80;;;;;;;23.47;64.17;99851.28;4990561;28;106028;-67
2021/07/27 06:14:29;;;;;;;13.98;4.97;;;;;;;23.54;64.08;99851.00;4991272;28;105906;-67
2021/07/27 06:16:54;;;;;;;6.63;4.00;;;;;;;23.56;64.00;99851.56;4990353;28;106263;-67
2021/07/27 06:19:19;;;;;;;10.73;4.47;;;;;;;23.61;63.51;99844.25;4990176;28;106078;-67
2021/07/27 06:21:45;;;;;;;9.18;4.13;;;;;;;23.65;63.07;99845.38;4990220;28;106371;-66
2021/07/27 06:24:10;;;;;;;12.60;4.80;;;;;;;23.69;62.48;99847.53;4988910;28;108329;-66
2021/07/27 06:26:39;;;;;;;11.95;4.90;;;;;;;23.73;62.50;99848.66;4990623;28;106166;-67
2021/07/27 06:29:05;;;;;;;7.13;4.28;;;;;;;23.80;62.08;99852.75;4990500;28;106060;-66
2021/07/27 06:31:31;;;;;;;8.75;3.65;;;;;;;23.88;61.86;99843.31;4990335;28;106332;-66
2021/07/27 06:33:57;;;;;;;6.57;3.75;;;;;;;24.02;61.19;99853.66;4991265;28;106103;-65
2021/07/27 06:36:22;;;;;;;9.02;4.45;;;;;;;24.13;60.93;99852.63;4990682;28;106131;-66
2021/07/27 06:38:48;;;;;;;7.57;4.47;;;;;;;24.21;60.44;99857.53;4990369;28;105936;-67
2021/07/27 06:41:13;;;;;;;11.52;5.10;;;;;;;24.33;60.15;99858.09;4990040;28;106092;-67
2021/07/27 06:43:40;;;;;;;7.30;3.40;;;;;;;24.37;59.51;99858.34;4990132;28;105847;-65
2021/07/27 06:46:06;;;;;;;9.25;3.75;;;;;;;24.50;59.38;99857.84;4990330;28;106002;-66
2021/07/27 06:48:32;;;;;;;11.90;3.75;;;;;;;24.65;59.62;99848.09;4989645;28;106329;-64
2021/07/27 06:50:57;;;;;;;10.57;3.38;;;;;;;24.84;58.94;99849.16;4990197;28;105872;-67
2021/07/27 06:53:26;;;;;;;9.93;3.80;;;;;;;24.99;58.04;99855.69;4990652;28;106075;-68
2021/07/27 06:55:52;;;;;;;6.43;3.70;;;;;;;24.98;57.55;99857.59;4989945;28;106287;-66
2021/07/27 06:58:17;;;;;;;9.30;3.35;;;;;;;25.02;57.25;99857.06;4989603;28;105778;-66
2021/07/27 07:00:43;;;;;;;5.60;3.00;;;;;;;25.11;57.14;99849.94;4989452;28;105852;-66
2021/07/27 07:03:09;;;;;;;6.60;3.40;;;;;;;25.32;57.08;99853.44;4990024;28;105911;-66
2021/07/27 07:05:35;;;;;;;8.25;3.25;;;;;;;25.56;56.70;99855.56;4989432;28;106499;-66
2021/07/27 07:08:01;;;;;;;9.48;3.78;;;;;;;25.73;55.57;99860.69;4989541;28;106063;-66
2021/07/27 07:10:26;;;;;;;10.23;3.83;;;;;;;25.60;55.05;99854.75;4990157;28;106011;-65
2021/07/27 07:12:52;;;;;;;8.25;3.13;;;;;;;25.60;54.24;99856.66;4990459;28;106301;-65
2021/07/27 07:15:17;;;;;;;7.40;3.38;;;;;;;25.38;53.51;99859.72;4989380;28;106284;-65
2021/07/27 07:17:43;;;;;;;7.80;3.10;;;;;;;25.29;54.03;99859.47;4989546;28;106574;-65
2021/07/27 07:20:08;;;;;;;6.97;2.95;;;;;;;25.42;54.36;99852.63;4989181;28;111080;-65
2021/07/27 07:22:35;;;;;;;6.03;2.83;;;;;;;25.68;53.87;99847.88;4990407;28;105667;-65
2021/07/27 07:25:00;;;;;;;6.90;3.00;;;;;;;25.84;52.90;99843.97;4989852;28;106251;-66
2021/07/27 07:27:25;;;;;;;7.18;2.85;;;;;;;26.05;52.80;99848.56;4989379;28;105789;-65
2021/07/27 07:29:54;;;;;;;7.05;3.25;;;;;;;26.39;51.95;99842.34;4989396;28;106636;-65
2021/07/27 07:32:21;;;;;;;7.43;3.27;;;;;;;26.57;51.56;99836.16;4990432;28;105939;-67
2021/07/27 07:34:46;;;;;;;4.07;3.13;;;;;;;26.80;50.51;99837.38;4989791;28;106111;-67
2021/07/27 07:37:11;;;;;;;6.00;3.00;;;;;;;27.05;50.27;99840.16;4989386;28;106059;-67
2021/07/27 07:39:37;;;;;;;5.10;3.17;;;;;;;27.43;49.70;99838.38;4989236;28;105989;-66
2021/07/27 07:42:06;;;;;;;5.03;3.42;;;;;;;27.85;49.21;99839.50;4989620;28;105901;-66
2021/07/27 07:44:32;;;;;;;7.43;3.00;;;;;;;28.24;48.42;99834.88;4989305;28;106085;-65
2021/07/27 07:46:58;;;;;;;5.80;3.10;;;;;;;28.56;47.67;99830.53;4988752;28;106149;-68
2021/07/27 07:49:24;;;;;;;8.38;3.22;;;;;;;28.75;46.18;99829.72;4988723;28;106748;-66
2021/07/27 07:51:50;;;;;;;9.95;3.33;;;;;;;28.67;45.48;99837.50;4989694;28;105903;-64
2021/07/27 07:54:17;;;;;;;6.47;3.25;;;;;;;28.52;45.54;99840.47;4989483;28;106245;-65
2021/07/27 07:56:46;;;;;;;7.50;3.40;;;;;;;28.56;45.62;99846.97;4988783;28;105994;-65
2021/07/27 07:59:12;;;;;;;9.18;3.92;;;;;;;28.53;44.89;99844.84;4989113;28;105886;-65
2021/07/27 08:01:38;;;;;;;7.38;3.20;;;;;;;28.62;45.32;99845.75;4990132;28;105897;-69
2021/07/27 08:04:04;;;;;;;7.47;4.30;;;;;;;28.82;44.69;99841.09;4989084;28;106137;-69
2021/07/27 08:06:30;;;;;;;11.95;4.25;;;;;;;28.79;44.72;99844.44;4988990;28;106878;-68
2021/07/27 08:08:56;;;;;;;8.27;4.03;;;;;;;28.74;44.46;99847.28;4989175;28;106108;-67
2021/07/27 08:11:22;;;;;;;10.55;3.67;;;;;;;28.91;44.82;99853.00;4989838;28;105938;-64
2021/07/27 08:13:48;;;;;;;6.30;3.63;;;;;;;29.13;44.27;99859.72;4989391;28;105833;-60
2021/07/27 08:16:13;;;;;;;6.03;3.75;;;;;;;29.04;43.02;99862.34;4988627;28;106008;-60
2021/07/27 08:18:39;;;;;;;5.03;3.30;;;;;;;28.90;43.93;99862.34;4988477;28;106464;-61
2021/07/27 08:21:04;;;;;;;6.30;3.85;;;;;;;28.99;43.47;99867.94;4988538;28;105922;-70
2021/07/27 08:23:30;;;;;;;7.30;4.20;;;;;;;28.94;43.43;99866.09;4988897;28;106258;-72
2021/07/27 08:25:55;;;;;;;6.40;3.55;;;;;;;28.94;43.88;99868.84;4988963;28;106646;-72
2021/07/27 08:28:20;;;;;;;6.93;3.63;;;;;;;29.08;43.76;99870.81;4988497;28;105893;-74
2021/07/27 08:30:46;;;;;;;10.35;3.80;;;;;;;29.12;43.58;99869.88;4980774;28;105958;-72
2021/07/27 08:33:11;;;;;;;4.93;3.28;;;;;;;29.28;43.55;99877.84;4968637;28;105784;-72
2021/07/27 08:35:37;;;;;;;7.35;3.47;;;;;;;29.52;43.41;99875.72;4968427;28;105757;-72
2021/07/27 08:38:02;;;;;;;7.43;3.63;;;;;;;29.64;42.85;99880.72;4968192;28;106366;-73
2021/07/27 08:40:34;;;;;;;7.22;3.45;;;;;;;29.47;42.37;99878.59;4969406;28;106036;-73
2021/07/27 08:43:01;;;;;;;9.85;3.85;;;;;;;29.40;42.39;99874.63;4968099;28;106068;-72
2021/07/27 08:45:26;;;;;;;6.72;3.70;;;;;;;29.15;42.92;99879.44;4968285;28;105748;-72
2021/07/27 08:47:52;;;;;;;4.97;3.90;;;;;;;29.05;43.24;99869.47;4967938;28;106141;-72
2021/07/27 08:50:19;;;;;;;6.95;3.28;;;;;;;29.09;43.58;99873.25;4986254;28;105813;-74
2021/07/27 08:52:44;;;;;;;9.95;3.38;;;;;;;29.44;44.03;99881.13;4986953;28;106284;-72
2021/07/27 08:55:11;;;;;;;8.88;3.05;;;;;;;29.89;43.51;99881.31;4987814;28;106679;-71
2021/07/27 08:57:47;;;;;;;6.45;3.63;;;;;;;30.39;42.23;99884.03;4987235;28;105885;-72
2021/07/27 09:00:13;;;;;;;8.50;3.40;;;;;;;30.46;41.13;99886.38;4988726;28;105929;-72
2021/07/27 09:02:38;;;;;;;13.10;3.60;;;;;;;30.68;40.67;99887.53;4988136;28;106105;-72
2021/07/27 09:05:09;;;;;;;7.18;3.55;;;;;;;30.52;40.33;99882.41;4987794;28;106768;-70
2021/07/27 09:07:34;;;;;;;6.72;3.50;;;;;;;30.63;40.63;99884.88;4987760;28;105875;-71
2021/07/27 09:10:10;;;;;;;5.30;3.17;;;;;;;30.97;40.40;99881.53;4987309;28;106041;-71
2021/07/27 09:12:36;;;;;;;8.20;3.97;;;;;;;31.27;39.26;99890.13;4987868;28;106266;-72
2021/07/27 09:15:07;;;;;;;10.45;3.50;;;;;;;31.27;38.62;99873.63;4987732;28;105931;-71
2021/07/27 09:17:33;;;;;;;6.28;3.30;;;;;;;31.29;37.84;99876.88;4987289;28;106291;-71
2021/07/27 09:19:58;;;;;;;4.90;3.13;;;;;;;31.47;37.59;99882.47;4988307;28;105842;-72
2021/07/27 09:22:23;;;;;;;5.60;3.05;;;;;;;31.81;37.30;99883.69;4987769;28;105994;-71
2021/07/27 09:24:49;;;;;;;5.45;3.35;;;;;;;32.06;36.61;99882.94;4986879;28;107165;-72
2021/07/27 09:27:14;;;;;;;4.03;3.22;;;;;;;32.30;35.76;99887.22;4987536;28;106505;-72
2021/07/27 09:29:47;;;;;;;6.35;2.80;;;;;;;32.60;35.48;99872.75;4989464;28;106433;-72
2021/07/27 09:32:22;;;;;;;5.97;2.83;;;;;;;32.95;34.83;99879.03;4991078;28;106254;-72
2021/07/27 09:34:47;;;;;;;5.50;2.80;;;;;;;33.13;33.60;99884.50;4990928;28;105949;-72
2021/07/27 09:37:14;;;;;;;4.22;3.10;;;;;;;32.77;33.51;99883.00;4990710;28;106032;-72
2021/07/27 09:39:40;;;;;;;6.07;2.78;;;;;;;32.13;33.22;99878.91;4991506;28;106347;-72
2021/07/27 09:42:08;;;;;;;4.35;3.15;;;;;;;31.82;34.50;99883.41;4977676;28;106306;-72
2021/07/27 09:44:36;;;;;;;5.50;3.25;;;;;;;31.92;34.83;99884.22;4971023;28;105952;-72
2021/07/27 09:47:02;;;;;;;6.72;2.80;;;;;;;32.16;34.86;99883.78;4970378;28;106101;-74
2021/07/27 09:49:28;;;;;;;7.07;3.15;;;;;;;32.62;34.08;99887.03;4982123;28;106019;-72
2021/07/27 09:51:56;;;;;;;4.95;2.90;;;;;;;33.05;33.85;99888.91;4990754;28;106166;-73
2021/07/27 09:54:23;;;;;;;4.25;2.38;;;;;;;33.13;31.38;99893.59;4990524;28;106951;-67
2021/07/27 09:56:52;;;;;;;4.00;2.85;;;;;;;32.87;32.10;99894.47;4990003;28;105846;-73
2021/07/27 09:59:20;;;;;;;4.68;2.92;;;;;;;33.00;32.98;99900.94;4991455;28;105779;-74
2021/07/27 10:01:53;;;;;;;4.25;2.45;;;;;;;33.17;31.61;99904.78;4990769;28;106079;-72
2021/07/27 10:04:29;;;;;;;5.60;2.85;;;;;;;33.31;32.07;99902.66;4990638;28;106278;-72
2021/07/27 10:06:55;;;;;;;5.85;2.88;;;;;;;33.89;31.93;99900.25;4989995;28;105791;-72
2021/07/27 10:09:30;;;;;;;8.88;3.20;;;;;;;34.55;30.92;99892.47;4990810;28;106471;-73
2021/07/27 10:12:15;;;;;;;5.32;3.00;;;;;;;34.98;30.45;99898.72;4988738;28;105916;-72
2021/07/27 10:14:46;;;;;;;5.50;3.38;;;;;;;35.16;30.04;99891.03;4989830;28;106381;-75
2021/07/27 11:55:40;;;;;;;6.43;2.65;;;;;;;35.19;28.47;99846.06;5007303;28;105966;-66
2021/07/27 11:58:09;;;;;;;6.07;2.67;;;;;;;34.97;28.38;99850.91;5006662;28;105980;-66
2021/07/27 12:00:36;;;;;;;3.25;2.53;;;;;;;34.95;28.43;99846.84;5004078;28;105880;-65
2021/07/27 12:03:05;;;;;;;3.63;2.58;;;;;;;35.42;28.24;99844.47;5003500;28;106920;-66
2021/07/27 12:05:31;;;;;;;;;;;;;;;35.55;27.57;99844.47;5004020;28;107917;-66
2021/07/27 12:07:57;;;;;;;4.72;2.40;;;;;;;35.58;28.34;99843.78;5005981;28;105961;-64
2021/07/27 12:10:23;;;;;;;4.45;2.40;;;;;;;35.91;27.99;99842.81;5005370;28;105883;-64
2021/07/27 12:12:48;;;;;;;4.38;2.70;;;;;;;36.10;27.27;99833.88;5004782;28;106778;-65
2021/07/27 12:15:15;;;;;;;4.38;2.92;;;;;;;36.23;27.27;99829.09;5004612;28;106028;-64
2021/07/27 12:17:41;;;;;;;5.10;2.60;;;;;;;36.21;27.22;99826.69;4987710;28;105924;-65
2021/07/27 12:20:08;;;;;;;4.53;2.60;;;;;;;36.08;27.28;99825.09;4984877;28;106161;-64
2021/07/27 12:22:34;;;;;;;7.60;2.70;;;;;;;36.05;27.20;99825.81;4984655;28;106074;-66
2021/07/27 12:24:59;;;;;;;8.77;2.75;;;;;;;36.09;27.25;99819.22;4984779;28;105956;-65
2021/07/27 12:27:24;;;;;;;7.85;3.08;;;;;;;36.05;27.48;99821.06;4984141;28;106027;-65
2021/07/27 12:29:50;;;;;;;4.63;2.80;;;;;;;35.32;27.55;99813.69;4985206;28;106189;-64
2021/07/27 12:32:15;;;;;;;5.53;2.55;;;;;;;35.12;28.55;99809.84;4984712;28;106355;-64
2021/07/27 12:34:40;;;;;;;4.50;2.42;;;;;;;34.91;28.46;99813.50;4983824;28;105828;-65
2021/07/27 12:37:09;;;;;;;4.15;2.47;;;;;;;34.66;28.47;99815.41;4985040;28;106257;-64
2021/07/27 12:39:34;;;;;;;4.40;2.83;;;;;;;34.16;28.68;99806.94;4984564;28;106351;-64
2021/07/27 12:42:00;;;;;;;5.63;2.60;;;;;;;33.68;29.86;99799.97;4984611;28;106075;-64
2021/07/27 12:44:25;;;;;;;7.43;3.05;;;;;;;33.65;29.70;99790.38;4984409;28;110385;-63
2021/07/27 12:46:50;;;;;;;4.88;2.85;;;;;;;33.84;30.04;99792.72;4985658;28;105920;-66
2021/07/27 12:49:17;;;;;;;5.43;2.40;;;;;;;33.79;29.42;99783.84;4984594;28;106190;-64
2021/07/27 12:51:44;;;;;;;5.75;2.92;;;;;;;33.88;30.37;99776.28;4984012;28;106184;-65
2021/07/27 12:54:09;;;;;;;5.93;3.00;;;;;;;34.15;29.95;99785.16;4983899;28;106166;-64
2021/07/27 12:56:36;;;;;;;6.70;2.78;;;;;;;34.36;29.49;99788.72;4985148;28;105854;-64
2021/07/27 12:59:01;;;;;;;6.22;2.70;;;;;;;33.91;29.29;99781.13;4984087;28;105783;-65
